Time;durP1;ratioP1;P1;durP2;ratioP2;P2;SDS_P1;SDS_P2;PMS_P1;PMS_P2;Temp;Humidity;BMP_temperature;BMP_pressure;BME280_temperature;BME280_humidity;BME280_pressure;Samples;Min_cycle;Max_cycle;Signal;HPM_P1;HPM_P2
2022/09/17 00:00:34;;;;;;;6.27;1.10;;;12.50;99.90;;;;;;6157391;23;20797;-86
2022/09/17 00:03:01;;;;;;;1.60;1.10;;;12.50;99.90;;;;;;6160168;23;20403;-86
2022/09/17 00:05:29;;;;;;;2.03;1.20;;;12.60;99.90;;;;;;6159347;23;20411;-85
2022/09/17 00:07:56;;;;;;;3.43;1.40;;;12.50;99.90;;;;;;6158176;23;20406;-86
2022/09/17 00:10:23;;;;;;;2.03;1.20;;;12.50;99.90;;;;;;6158233;23;20420;-85
2022/09/17 00:12:50;;;;;;;2.60;1.30;;;12.60;99.90;;;;;;6158560;23;20407;-86
2022/09/17 00:15:18;;;;;;;1.83;1.30;;;12.60;99.90;;;;;;6163698;23;20408;-85
2022/09/17 00:17:44;;;;;;;2.20;1.03;;;12.50;99.90;;;;;;6185106;23;20383;-85
2022/09/17 00:20:11;;;;;;;3.17;1.60;;;12.60;99.90;;;;;;6179341;23;20453;-86
2022/09/17 00:22:40;;;;;;;2.47;1.00;;;12.60;99.90;;;;;;6159382;23;20454;-86
2022/09/17 00:25:08;;;;;;;1.77;1.20;;;12.50;99.90;;;;;;6156740;23;20415;-86
2022/09/17 00:27:35;;;;;;;1.80;1.10;;;12.50;99.90;;;;;;6157326;23;20937;-85
2022/09/17 00:30:01;;;;;;;1.37;0.90;;;12.40;99.90;;;;;;6156449;23;20430;-86
2022/09/17 00:32:28;;;;;;;1.97;1.10;;;12.40;99.90;;;;;;6157383;23;20418;-86
2022/09/17 00:34:55;;;;;;;1.60;1.07;;;12.40;99.90;;;;;;6157067;23;20422;-85
2022/09/17 00:37:22;;;;;;;5.80;1.30;;;12.30;99.90;;;;;;6161793;23;20398;-87
2022/09/17 00:39:50;;;;;;;1.60;0.97;;;12.30;99.90;;;;;;6170928;23;20437;-85
2022/09/17 00:42:18;;;;;;;2.13;1.03;;;12.30;99.90;;;;;;6172583;23;20415;-86
2022/09/17 00:44:49;;;;;;;3.33;1.10;;;12.30;99.90;;;;;;6156392;23;20392;-86
2022/09/17 00:47:23;;;;;;;1.50;0.90;;;12.30;99.90;;;;;;6177380;23;20408;-86
2022/09/17 00:49:52;;;;;;;2.00;1.20;;;12.40;99.90;;;;;;6163191;23;20388;-84
2022/09/17 00:52:24;;;;;;;3.50;1.33;;;12.40;99.90;;;;;;6162016;23;20407;-85
2022/09/17 00:54:59;;;;;;;2.53;1.03;;;12.50;99.90;;;;;;6163897;23;20392;-84
2022/09/17 00:57:26;;;;;;;1.83;1.10;;;12.50;99.90;;;;;;6164796;23;20458;-85
2022/09/17 00:59:54;;;;;;;2.60;1.33;;;12.50;99.90;;;;;;6173528;23;20447;-86
2022/09/17 01:02:21;;;;;;;3.50;1.30;;;12.40;99.90;;;;;;6177321;23;20434;-82
2022/09/17 01:04:47;;;;;;;3.87;1.40;;;12.30;99.90;;;;;;6182277;23;20383;-85
2022/09/17 01:07:26;;;;;;;3.20;1.60;;;12.30;99.90;;;;;;6157287;23;20418;-85
2022/09/17 01:09:59;;;;;;;2.60;1.20;;;12.20;99.90;;;;;;6157232;23;20400;-86
2022/09/17 01:12:50;;;;;;;4.20;1.30;;;12.10;99.90;;;;;;6156907;23;20418;-85
2022/09/17 01:15:24;;;;;;;4.47;1.70;;;12.00;99.90;;;;;;6157083;23;20395;-85
2022/09/17 01:18:03;;;;;;;4.57;1.53;;;11.90;99.90;;;;;;6157787;23;20422;-85
2022/09/17 01:20:57;;;;;;;3.33;1.53;;;11.90;99.90;;;;;;6162548;23;20446;-86
2022/09/17 01:23:56;;;;;;;2.20;1.23;;;11.90;99.90;;;;;;6166800;23;20419;-86
2022/09/17 01:26:51;;;;;;;3.40;1.60;;;11.80;99.90;;;;;;6161002;23;20396;-86
2022/09/17 01:29:34;;;;;;;2.10;1.23;;;11.80;99.90;;;;;;6170749;23;20407;-86
2022/09/17 01:32:08;;;;;;;1.90;1.40;;;11.80;99.90;;;;;;6160022;23;20419;-86
2022/09/17 01:34:44;;;;;;;2.23;1.33;;;11.70;99.90;;;;;;6169337;23;20391;-86
2022/09/17 01:37:15;;;;;;;1.83;1.43;;;11.70;99.90;;;;;;6163455;23;20419;-85
2022/09/17 01:39:47;;;;;;;3.07;1.30;;;11.70;99.90;;;;;;6180201;23;20455;-84
2022/09/17 01:42:21;;;;;;;2.20;1.33;;;11.60;99.90;;;;;;6163243;23;20398;-85
2022/09/17 01:44:56;;;;;;;1.97;1.60;;;11.70;99.90;;;;;;6158125;23;20399;-86
2022/09/17 01:47:29;;;;;;;2.70;1.43;;;11.80;99.90;;;;;;6166913;23;20390;-85
2022/09/17 01:50:03;;;;;;;1.83;1.47;;;11.80;99.90;;;;;;6183543;23;20430;-84
2022/09/17 01:52:33;;;;;;;1.90;1.30;;;11.80;99.90;;;;;;6182856;23;20386;-85
2022/09/17 01:55:05;;;;;;;2.00;1.00;;;11.80;99.90;;;;;;6163839;23;20380;-85
2022/09/17 01:57:36;;;;;;;1.90;1.27;;;11.80;99.90;;;;;;6179998;23;20402;-85
2022/09/17 02:00:07;;;;;;;4.37;1.57;;;11.80;99.90;;;;;;6158967;23;20478;-84
2022/09/17 02:02:40;;;;;;;2.53;1.57;;;11.90;99.90;;;;;;6156823;23;20376;-85
2022/09/17 02:05:12;;;;;;;1.77;1.40;;;12.10;99.90;;;;;;6157505;23;20392;-84
2022/09/17 02:07:42;;;;;;;4.00;1.83;;;12.20;99.90;;;;;;6157578;23;20391;-86
2022/09/17 02:10:12;;;;;;;5.57;2.00;;;12.20;99.90;;;;;;6172563;23;20420;-85
2022/09/17 02:12:42;;;;;;;2.97;1.80;;;12.20;99.90;;;;;;6184060;23;20394;-84
2022/09/17 02:15:11;;;;;;;1.93;1.20;;;12.10;99.90;;;;;;6164698;23;20723;-85
2022/09/17 02:17:46;;;;;;;1.90;1.30;;;12.10;99.90;;;;;;6156362;23;20403;-86
2022/09/17 02:20:13;;;;;;;2.40;1.80;;;12.00;99.90;;;;;;6156542;23;20442;-86
2022/09/17 02:22:44;;;;;;;3.37;1.80;;;12.00;99.90;;;;;;6157979;23;20406;-86
2022/09/17 02:25:17;;;;;;;3.67;2.20;;;12.00;99.90;;;;;;6158593;23;20414;-86
2022/09/17 02:27:52;;;;;;;2.83;1.70;;;12.10;99.90;;;;;;6184127;23;20398;-85
2022/09/17 02:30:19;;;;;;;5.80;1.60;;;12.00;99.90;;;;;;6183401;23;20430;-84
2022/09/17 02:32:47;;;;;;;5.27;1.50;;;11.90;99.90;;;;;;6176539;23;20478;-86
2022/09/17 02:35:15;;;;;;;3.57;1.53;;;11.90;99.90;;;;;;6159275;23;20928;-86
2022/09/17 02:37:42;;;;;;;5.07;2.40;;;11.80;99.90;;;;;;6156951;23;20735;-85
2022/09/17 02:40:11;;;;;;;2.50;1.53;;;11.80;99.90;;;;;;6157918;23;20469;-86
2022/09/17 02:42:56;;;;;;;3.20;1.40;;;11.80;99.90;;;;;;6156916;23;20399;-86
2022/09/17 02:45:39;;;;;;;4.03;1.50;;;11.90;99.90;;;;;;6160382;23;20392;-86
2022/09/17 02:48:29;;;;;;;2.23;1.80;;;11.90;99.90;;;;;;6156561;23;20403;-86
2022/09/17 02:51:20;;;;;;;3.30;1.70;;;11.90;99.90;;;;;;6152724;23;20962;-86
2022/09/17 02:53:56;;;;;;;5.50;1.40;;;11.90;99.90;;;;;;6171887;23;20390;-85
2022/09/17 02:56:37;;;;;;;7.17;2.20;;;11.90;99.90;;;;;;6165768;23;20685;-85
2022/09/17 02:59:13;;;;;;;1.73;1.07;;;11.90;99.90;;;;;;6156688;23;20391;-86
2022/09/17 03:01:44;;;;;;;3.60;1.60;;;12.00;99.90;;;;;;6158555;23;20406;-85
2022/09/17 03:04:16;;;;;;;9.50;1.63;;;12.10;99.90;;;;;;6159701;23;20391;-86
2022/09/17 03:06:46;;;;;;;4.13;2.07;;;12.00;99.90;;;;;;6159228;23;20391;-86
2022/09/17 03:09:13;;;;;;;4.20;1.30;;;12.00;99.90;;;;;;6163105;23;20473;-85
2022/09/17 03:11:41;;;;;;;3.13;1.37;;;12.00;99.90;;;;;;6161554;23;20431;-86
2022/09/17 03:14:07;;;;;;;3.60;1.80;;;11.90;99.90;;;;;;6160929;23;20407;-85
2022/09/17 03:16:34;;;;;;;4.60;1.83;;;11.90;99.90;;;;;;6159458;23;20414;-86
2022/09/17 03:19:01;;;;;;;3.70;1.40;;;11.80;99.90;;;;;;6158862;23;20418;-85
2022/09/17 03:21:30;;;;;;;5.47;1.43;;;11.80;99.90;;;;;;6158394;23;20422;-85
2022/09/17 03:23:59;;;;;;;2.93;1.50;;;11.80;99.90;;;;;;6159762;23;20407;-85
2022/09/17 03:26:25;;;;;;;4.50;1.40;;;11.70;99.90;;;;;;6177247;23;20458;-85
2022/09/17 03:28:52;;;;;;;5.97;1.63;;;11.70;99.90;;;;;;6176524;23;20392;-85
2022/09/17 03:31:19;;;;;;;5.10;1.67;;;11.60;99.90;;;;;;6166593;23;20431;-85
2022/09/17 03:33:45;;;;;;;4.70;1.80;;;11.50;99.90;;;;;;6158888;23;20388;-85
2022/09/17 03:36:12;;;;;;;4.63;1.30;;;11.50;99.90;;;;;;6162544;23;20395;-85
2022/09/17 03:38:40;;;;;;;5.50;1.43;;;11.50;99.90;;;;;;6180584;23;20399;-86
2022/09/17 03:41:07;;;;;;;5.50;1.77;;;11.60;99.90;;;;;;6157893;23;20443;-86
2022/09/17 03:43:34;;;;;;;4.07;1.40;;;11.70;99.90;;;;;;6165629;23;20403;-84
2022/09/17 03:46:01;;;;;;;4.07;1.80;;;11.70;99.90;;;;;;6178909;23;20414;-85
2022/09/17 03:48:29;;;;;;;3.50;1.83;;;11.70;99.90;;;;;;6163192;23;20415;-85
2022/09/17 03:50:55;;;;;;;4.00;1.53;;;11.70;99.90;;;;;;6157588;23;20745;-86
2022/09/17 03:53:22;;;;;;;5.17;1.90;;;11.60;99.90;;;;;;6162813;23;20423;-86
2022/09/17 03:55:50;;;;;;;4.37;1.60;;;11.50;99.90;;;;;;6162760;23;20407;-86
2022/09/17 03:58:17;;;;;;;6.90;2.43;;;11.60;99.90;;;;;;6163474;23;20407;-86
2022/09/17 04:00:44;;;;;;;7.43;1.80;;;11.50;99.90;;;;;;6157244;23;20454;-86
2022/09/17 04:03:11;;;;;;;4.80;1.57;;;11.40;99.90;;;;;;6157763;23;20407;-86
2022/09/17 04:05:38;;;;;;;5.37;1.73;;;11.30;99.90;;;;;;6160966;23;20407;-85
2022/09/17 04:08:05;;;;;;;5.60;1.77;;;11.30;99.90;;;;;;6158312;23;20442;-86
2022/09/17 04:10:31;;;;;;;5.47;2.03;;;11.20;99.90;;;;;;6157311;23;20806;-88
2022/09/17 04:13:03;;;;;;;2.80;1.70;;;11.20;99.90;;;;;;6158573;23;20408;-87
2022/09/17 04:15:33;;;;;;;4.50;1.50;;;11.20;99.90;;;;;;6177198;23;20415;-87
2022/09/17 04:18:00;;;;;;;4.23;1.50;;;11.20;99.90;;;;;;6173859;23;20483;-87
2022/09/17 04:20:27;;;;;;;3.23;1.40;;;11.20;99.90;;;;;;6160995;23;20442;-87
2022/09/17 04:22:56;;;;;;;2.97;1.43;;;11.20;99.90;;;;;;6163185;23;20471;-87
2022/09/17 04:25:26;;;;;;;8.33;4.13;;;11.20;99.90;;;;;;6160264;23;20411;-87
2022/09/17 04:27:53;;;;;;;3.97;1.60;;;11.20;99.90;;;;;;6161015;23;20467;-87
2022/09/17 04:30:22;;;;;;;3.97;1.57;;;11.10;99.90;;;;;;6157663;23;20526;-87
2022/09/17 04:32:48;;;;;;;3.37;1.50;;;11.00;99.90;;;;;;6156838;23;20419;-86
2022/09/17 04:35:15;;;;;;;6.27;1.80;;;11.10;99.90;;;;;;6157984;23;20731;-85
2022/09/17 04:37:54;;;;;;;3.87;2.30;;;11.10;99.90;;;;;;6158478;23;20414;-85
2022/09/17 04:40:21;;;;;;;5.97;1.57;;;11.30;99.90;;;;;;6159556;23;20442;-85
2022/09/17 04:42:48;;;;;;;3.60;1.53;;;11.40;99.90;;;;;;6157664;23;20430;-86
2022/09/17 04:45:15;;;;;;;9.50;1.90;;;11.50;99.90;;;;;;6157772;23;20399;-86
2022/09/17 04:47:43;;;;;;;3.67;1.73;;;11.50;99.90;;;;;;6157136;23;20387;-85
2022/09/17 04:50:10;;;;;;;4.13;1.50;;;11.50;99.90;;;;;;6175994;23;20483;-85
2022/09/17 04:52:37;;;;;;;8.10;2.20;;;11.60;99.90;;;;;;6183088;23;20380;-85
2022/09/17 04:55:04;;;;;;;4.83;2.10;;;11.70;99.90;;;;;;6163994;23;20423;-86
2022/09/17 04:57:31;;;;;;;3.77;1.50;;;11.60;99.90;;;;;;6160312;23;20402;-86
2022/09/17 04:59:58;;;;;;;5.00;1.80;;;11.70;99.90;;;;;;6171616;23;20443;-85
2022/09/17 05:02:24;;;;;;;5.17;1.47;;;11.70;99.90;;;;;;6170822;23;20415;-86
2022/09/17 05:04:52;;;;;;;6.70;1.93;;;11.80;99.90;;;;;;6158427;23;20407;-85
2022/09/17 05:07:19;;;;;;;4.50;1.97;;;11.80;99.90;;;;;;6163354;23;20411;-85
2022/09/17 05:09:46;;;;;;;5.97;2.10;;;11.80;99.90;;;;;;6158569;23;20388;-86
2022/09/17 05:12:12;;;;;;;8.47;2.87;;;11.80;99.90;;;;;;6159389;23;20953;-86
2022/09/17 05:14:39;;;;;;;7.30;2.10;;;11.80;99.90;;;;;;6177789;23;20414;-79
2022/09/17 05:17:06;;;;;;;5.87;3.60;;;11.70;99.90;;;;;;6160442;23;20395;-79
2022/09/17 05:19:33;;;;;;;6.93;2.40;;;11.70;99.90;;;;;;6159391;23;20403;-79
2022/09/17 05:22:01;;;;;;;9.27;2.33;;;11.70;99.90;;;;;;6159209;23;20451;-80
2022/09/17 05:27:00;;;;;;;5.73;1.67;;;11.70;99.90;;;;;;6169700;23;20407;-90
2022/09/17 05:29:27;;;;;;;3.77;2.00;;;11.60;99.90;;;;;;6167294;23;20791;-89
2022/09/17 05:31:54;;;;;;;3.90;1.60;;;11.60;99.90;;;;;;6159618;23;20395;-89
2022/09/17 05:34:20;;;;;;;4.93;1.90;;;11.60;99.90;;;;;;6157637;23;20418;-88
2022/09/17 05:36:48;;;;;;;6.20;2.17;;;11.60;99.90;;;;;;6158584;23;20432;-84
2022/09/17 05:39:16;;;;;;;5.57;2.40;;;11.50;99.90;;;;;;6160756;23;20423;-84
2022/09/17 05:41:42;;;;;;;3.40;2.00;;;11.50;99.90;;;;;;6158808;23;20992;-85
2022/09/17 05:44:10;;;;;;;5.63;2.33;;;11.50;99.90;;;;;;6159281;23;20430;-84
2022/09/17 05:46:36;;;;;;;4.63;1.90;;;11.50;99.90;;;;;;6158599;23;20427;-84
2022/09/17 05:49:03;;;;;;;4.30;1.97;;;11.50;99.90;;;;;;6161474;23;20475;-84
2022/09/17 05:51:30;;;;;;;4.20;2.10;;;11.50;99.90;;;;;;6159037;23;20400;-84
2022/09/17 05:53:57;;;;;;;5.47;2.87;;;11.40;99.90;;;;;;6159638;23;20415;-83
2022/09/17 05:56:25;;;;;;;4.40;2.00;;;11.50;99.90;;;;;;6159556;23;20493;-84
2022/09/17 05:58:55;;;;;;;4.20;1.93;;;11.50;99.90;;;;;;6159452;23;21078;-85
2022/09/17 06:01:22;;;;;;;6.60;3.57;;;11.60;99.90;;;;;;6160719;23;20449;-87
2022/09/17 06:03:49;;;;;;;4.97;2.17;;;11.60;99.90;;;;;;6162086;23;20462;-83
2022/09/17 06:06:16;;;;;;;5.53;2.60;;;11.80;99.90;;;;;;6159537;23;20442;-85
2022/09/17 06:08:42;;;;;;;3.27;2.00;;;12.00;99.90;;;;;;6160385;23;20392;-85
2022/09/17 06:11:10;;;;;;;6.30;2.23;;;12.20;99.90;;;;;;6159836;23;20399;-86
2022/09/17 06:13:38;;;;;;;4.47;3.10;;;12.30;99.90;;;;;;6164145;23;20418;-84
2022/09/17 06:16:05;;;;;;;5.30;2.20;;;12.50;99.90;;;;;;6161640;23;20435;-84
2022/09/17 06:18:32;;;;;;;4.07;2.00;;;12.60;99.90;;;;;;6162952;23;20906;-84
2022/09/17 06:21:01;;;;;;;5.50;2.50;;;12.60;99.90;;;;;;6162875;23;20987;-85
2022/09/17 06:23:28;;;;;;;6.97;2.67;;;12.60;99.90;;;;;;6171404;23;20427;-86
2022/09/17 06:25:57;;;;;;;4.63;1.90;;;12.60;99.90;;;;;;6170482;23;20938;-85
2022/09/17 06:28:23;;;;;;;5.13;1.80;;;12.60;99.90;;;;;;6168647;23;20494;-84
2022/09/17 06:30:53;;;;;;;4.50;1.73;;;12.60;99.90;;;;;;6166262;23;20414;-85
2022/09/17 06:33:20;;;;;;;6.30;2.30;;;12.60;99.90;;;;;;6167210;23;20479;-85
2022/09/17 06:35:47;;;;;;;3.77;1.97;;;12.70;99.90;;;;;;6168516;23;20451;-86
2022/09/17 06:38:14;;;;;;;4.13;1.97;;;12.70;99.90;;;;;;6164679;23;20411;-82
2022/09/17 06:40:40;;;;;;;3.37;2.70;;;12.80;99.90;;;;;;6163051;23;20441;-84
2022/09/17 06:43:07;;;;;;;5.63;2.60;;;12.80;99.90;;;;;;6164748;23;20407;-83
2022/09/17 06:45:34;;;;;;;7.00;2.70;;;12.80;99.90;;;;;;6171260;23;20798;-84
2022/09/17 06:48:05;;;;;;;5.50;2.37;;;12.80;99.90;;;;;;6174856;23;20401;-85
2022/09/17 06:50:32;;;;;;;4.27;1.77;;;12.90;99.90;;;;;;6169617;23;20388;-82
2022/09/17 06:52:59;;;;;;;5.60;2.80;;;12.80;99.90;;;;;;6173471;23;20409;-85
2022/09/17 06:55:27;;;;;;;5.20;2.10;;;12.90;99.90;;;;;;6168573;23;20432;-82
2022/09/17 06:57:54;;;;;;;3.87;1.97;;;12.90;99.90;;;;;;6169332;23;20391;-83
2022/09/17 07:00:20;;;;;;;4.93;2.03;;;12.80;99.90;;;;;;6162107;23;20411;-82
2022/09/17 07:02:56;;;;;;;3.43;1.80;;;12.80;99.90;;;;;;6158214;23;20747;-84
2022/09/17 07:05:24;;;;;;;3.33;2.13;;;12.80;99.90;;;;;;6158820;23;20451;-82
2022/09/17 07:07:51;;;;;;;4.20;2.30;;;12.80;99.90;;;;;;6164049;23;20411;-84
2022/09/17 07:10:18;;;;;;;4.97;2.30;;;12.70;99.90;;;;;;6159519;23;20400;-84
2022/09/17 07:12:44;;;;;;;5.10;2.20;;;12.70;99.90;;;;;;6156499;23;20798;-83
2022/09/17 07:15:12;;;;;;;4.50;2.17;;;12.70;99.90;;;;;;6156750;23;20427;-85
2022/09/17 07:17:40;;;;;;;3.90;2.43;;;12.70;99.90;;;;;;6158109;23;20446;-84
2022/09/17 07:20:07;;;;;;;6.17;3.07;;;12.70;99.90;;;;;;6158878;23;20422;-81
2022/09/17 07:22:35;;;;;;;2.60;1.90;;;12.70;99.90;;;;;;6158195;23;20461;-81
2022/09/17 07:25:02;;;;;;;4.10;1.83;;;12.70;99.90;;;;;;6159090;23;20791;-81
2022/09/17 07:27:30;;;;;;;4.00;2.00;;;12.60;99.90;;;;;;6160240;23;20882;-84
2022/09/17 07:29:57;;;;;;;7.23;1.90;;;12.60;99.90;;;;;;6163437;23;20466;-81
2022/09/17 07:32:24;;;;;;;5.27;3.00;;;12.50;99.90;;;;;;6160722;23;20407;-84
2022/09/17 07:34:51;;;;;;;4.13;2.30;;;12.50;99.90;;;;;;6157395;23;20428;-85
2022/09/17 07:37:20;;;;;;;3.43;2.30;;;12.30;99.90;;;;;;6156729;23;20910;-82
2022/09/17 07:39:48;;;;;;;2.67;2.00;;;12.20;99.90;;;;;;6155678;23;20441;-84
2022/09/17 07:42:14;;;;;;;3.63;2.40;;;12.20;99.90;;;;;;6156180;23;20450;-84
2022/09/17 07:44:41;;;;;;;5.80;2.60;;;12.20;99.90;;;;;;6156073;23;20407;-83
2022/09/17 07:47:08;;;;;;;6.90;2.50;;;12.10;99.90;;;;;;6162962;23;20438;-86
2022/09/17 07:49:35;;;;;;;5.13;3.53;;;12.10;99.90;;;;;;6165106;23;20407;-82
2022/09/17 07:52:05;;;;;;;3.60;2.30;;;12.10;99.90;;;;;;6163401;23;20403;-82
2022/09/17 07:54:32;;;;;;;3.47;2.80;;;12.00;99.90;;;;;;6160610;23;20411;-81
2022/09/17 07:57:00;;;;;;;4.10;3.10;;;12.00;99.90;;;;;;6158678;23;20904;-83
2022/09/17 07:59:27;;;;;;;3.80;2.47;;;11.90;99.90;;;;;;6167024;23;20407;-81
2022/09/17 08:01:54;;;;;;;3.63;3.33;;;11.80;99.90;;;;;;6179685;23;20453;-79
2022/09/17 08:04:21;;;;;;;3.53;3.10;;;11.80;99.90;;;;;;6175400;23;20416;-80
2022/09/17 08:06:48;;;;;;;4.47;2.60;;;11.90;99.90;;;;;;6171010;23;20431;-83
2022/09/17 08:09:15;;;;;;;5.67;2.67;;;12.10;99.90;;;;;;6157374;23;20419;-83
2022/09/17 08:11:42;;;;;;;3.10;1.90;;;12.30;99.90;;;;;;6157517;23;20459;-82
2022/09/17 08:14:12;;;;;;;3.73;2.30;;;12.40;99.90;;;;;;6157529;23;20431;-82
2022/09/17 08:16:39;;;;;;;4.93;2.60;;;12.40;99.90;;;;;;6158304;23;20423;-83
2022/09/17 08:19:07;;;;;;;4.17;2.70;;;12.40;99.90;;;;;;6160487;23;20789;-83
2022/09/17 08:21:34;;;;;;;3.83;2.27;;;12.40;99.90;;;;;;6159649;23;20435;-83
2022/09/17 08:24:01;;;;;;;2.63;2.30;;;12.40;99.90;;;;;;6159164;23;20411;-83
2022/09/17 08:26:28;;;;;;;3.63;2.70;;;12.40;99.90;;;;;;6159635;23;20954;-83
2022/09/17 08:28:56;;;;;;;5.73;3.00;;;12.50;99.90;;;;;;6160145;23;20411;-83
2022/09/17 08:31:27;;;;;;;6.13;2.90;;;12.60;99.90;;;;;;6159853;23;20404;-83
2022/09/17 08:33:54;;;;;;;4.07;2.87;;;12.60;99.90;;;;;;6159702;23;20395;-83
2022/09/17 08:36:21;;;;;;;3.43;2.90;;;12.70;99.90;;;;;;6159258;23;20431;-83
2022/09/17 08:38:52;;;;;;;5.23;2.87;;;13.00;99.90;;;;;;6159520;23;20407;-82
2022/09/17 08:41:26;;;;;;;4.63;2.90;;;13.20;99.90;;;;;;6165387;23;20470;-81
2022/09/17 08:44:08;;;;;;;7.77;3.00;;;13.40;99.90;;;;;;6164350;23;20896;-83
2022/09/17 08:46:42;;;;;;;6.40;2.73;;;13.60;99.90;;;;;;6160278;23;20427;-82
2022/09/17 08:49:16;;;;;;;6.20;2.60;;;13.60;99.90;;;;;;6160987;23;20395;-82
2022/09/17 08:51:50;;;;;;;6.30;2.77;;;13.70;99.90;;;;;;6159564;23;20775;-82
2022/09/17 08:54:20;;;;;;;7.00;2.50;;;13.80;99.90;;;;;;6160625;23;20400;-82
2022/09/17 08:56:51;;;;;;;8.97;3.10;;;14.10;99.90;;;;;;6161053;23;20431;-83
2022/09/17 08:59:25;;;;;;;4.50;3.10;;;14.60;99.90;;;;;;6159888;23;20403;-83
2022/09/17 09:02:00;;;;;;;8.80;2.80;;;15.00;99.90;;;;;;6159484;23;20464;-83
2022/09/17 09:04:44;;;;;;;7.40;2.80;;;15.50;99.90;;;;;;6161306;23;20842;-81
2022/09/17 09:07:16;;;;;;;5.10;2.07;;;16.20;99.90;;;;;;6166559;23;20395;-80
2022/09/17 09:09:48;;;;;;;6.13;2.53;;;16.40;99.90;;;;;;6166777;23;20475;-80
2022/09/17 09:12:23;;;;;;;4.80;2.30;;;16.20;99.90;;;;;;6181149;23;20395;-80
2022/09/17 09:14:56;;;;;;;7.10;2.40;;;16.00;99.90;;;;;;6178889;23;20419;-80
2022/09/17 09:17:27;;;;;;;9.90;3.20;;;16.00;99.90;;;;;;6179847;23;20395;-80
2022/09/17 09:19:55;;;;;;;8.50;2.67;;;15.80;99.90;;;;;;6159157;23;20658;-82
2022/09/17 09:22:45;;;;;;;7.60;2.40;;;15.70;99.90;;;;;;6160023;23;20478;-80
2022/09/17 09:25:22;;;;;;;7.73;3.03;;;15.40;99.90;;;;;;6168423;23;20466;-82
2022/09/17 09:28:02;;;;;;;8.67;3.23;;;15.10;99.90;;;;;;6166640;23;20394;-83
2022/09/17 09:30:39;;;;;;;3.93;2.40;;;15.10;99.90;;;;;;6169081;23;20387;-82
2022/09/17 09:33:14;;;;;;;5.87;2.73;;;15.00;99.90;;;;;;6164578;23;20387;-82
2022/09/17 09:35:42;;;;;;;9.33;3.13;;;15.00;99.90;;;;;;6159943;23;20808;-84
2022/09/17 09:38:18;;;;;;;5.97;2.47;;;15.10;99.90;;;;;;6159038;23;20906;-83
2022/09/17 09:40:51;;;;;;;10.43;3.90;;;15.10;99.90;;;;;;6160612;23;20399;-83
2022/09/17 09:43:21;;;;;;;4.70;2.40;;;15.30;99.90;;;;;;6159995;23;20482;-83
2022/09/17 09:46:15;;;;;;;7.90;3.47;;;15.40;99.90;;;;;;6165785;23;20458;-82
2022/09/17 09:48:51;;;;;;;6.63;3.20;;;15.50;99.90;;;;;;6169534;23;20408;-81
2022/09/17 09:51:31;;;;;;;9.30;2.30;;;15.60;99.90;;;;;;6166153;23;20399;-81
2022/09/17 09:54:13;;;;;;;9.97;3.40;;;15.90;99.90;;;;;;6160903;23;20391;-82
2022/09/17 09:56:53;;;;;;;5.43;2.53;;;16.50;99.90;;;;;;6159391;23;20741;-82
2022/09/17 09:59:20;;;;;;;5.57;2.30;;;16.90;99.50;;;;;;6159201;23;20391;-81
2022/09/17 10:01:47;;;;;;;7.83;3.63;;;16.60;99.10;;;;;;6159574;23;20463;-83
2022/09/17 10:04:19;;;;;;;5.83;2.90;;;16.30;99.80;;;;;;6159353;23;20726;-83
2022/09/17 10:06:46;;;;;;;6.40;3.00;;;16.20;99.90;;;;;;6160831;23;20423;-83
2022/09/17 10:09:16;;;;;;;7.23;2.73;;;16.20;99.90;;;;;;6160770;23;20899;-83
2022/09/17 10:11:58;;;;;;;16.83;3.90;;;16.10;99.60;;;;;;6161262;23;20414;-82
2022/09/17 10:14:28;;;;;;;5.33;2.33;;;16.10;99.30;;;;;;6161484;23;20395;-82
2022/09/17 10:17:16;;;;;;;5.33;2.97;;;16.10;99.00;;;;;;6160954;23;20499;-83
2022/09/17 10:19:46;;;;;;;6.37;3.07;;;16.10;99.10;;;;;;6159320;23;20387;-83
2022/09/17 10:22:28;;;;;;;8.13;3.10;;;16.10;99.20;;;;;;6159717;23;20467;-83
2022/09/17 10:24:57;;;;;;;5.20;2.33;;;15.90;99.30;;;;;;6158750;23;20821;-83
2022/09/17 10:27:25;;;;;;;5.53;2.97;;;15.90;99.00;;;;;;6159636;23;20443;-83
2022/09/17 10:30:01;;;;;;;5.50;2.80;;;16.60;98.70;;;;;;6162146;23;20530;-83
2022/09/17 10:32:27;;;;;;;4.47;2.20;;;18.60;96.40;;;;;;6169738;23;20383;-81
2022/09/17 10:35:04;;;;;;;6.17;2.37;;;21.90;89.40;;;;;;6173843;23;20438;-81
2022/09/17 10:37:41;;;;;;;6.63;2.80;;;23.90;76.10;;;;;;6166819;23;20455;-81
2022/09/17 10:40:27;;;;;;;6.00;2.40;;;22.80;72.50;;;;;;6159586;23;20391;-83
2022/09/17 10:43:22;;;;;;;3.37;1.70;;;21.60;74.70;;;;;;6161453;23;20455;-83
2022/09/17 10:45:58;;;;;;;4.40;2.80;;;23.40;73.30;;;;;;6162740;23;20427;-83
2022/09/17 10:48:28;;;;;;;5.63;2.30;;;25.10;65.50;;;;;;6164000;23;20395;-90
2022/09/17 10:51:01;;;;;;;5.33;2.00;;;25.00;63.90;;;;;;6164768;23;20422;-91
2022/09/17 10:53:29;;;;;;;3.87;2.10;;;24.60;63.00;;;;;;6182608;23;20411;-89
2022/09/17 10:56:07;;;;;;;5.23;1.80;;;25.90;62.90;;;;;;6181757;23;20475;-86
2022/09/17 10:58:48;;;;;;;2.80;1.30;;;27.00;57.20;;;;;;6174808;23;20402;-90
2022/09/17 11:01:41;;;;;;;3.73;1.87;;;27.10;55.30;;;;;;6165664;23;20406;-89
2022/09/17 11:04:25;;;;;;;7.40;4.20;;;25.70;56.00;;;;;;6161184;23;20413;-89
2022/09/17 11:07:33;;;;;;;6.57;3.67;;;23.50;57.50;;;;;;6163291;23;20910;-89
2022/09/17 11:10:08;;;;;;;9.70;2.87;;;21.90;61.40;;;;;;6175168;23;20403;-90
2022/09/17 11:12:48;;;;;;;5.53;2.37;;;20.90;65.10;;;;;;6178757;23;20394;-91
2022/09/17 11:15:30;;;;;;;7.70;3.33;;;21.80;65.30;;;;;;6171496;23;20415;-89
2022/09/17 11:18:32;;;;;;;5.97;3.20;;;23.60;61.50;;;;;;6162509;23;20506;-83
2022/09/17 11:21:29;;;;;;;6.97;3.03;;;23.60;59.20;;;;;;6163063;23;20428;-84
2022/09/17 11:24:20;;;;;;;7.10;2.50;;;25.40;57.80;;;;;;6164768;23;20439;-84
2022/09/17 11:26:58;;;;;;;5.70;2.07;;;26.60;54.90;;;;;;6160105;23;20443;-83
2022/09/17 11:29:48;;;;;;;2.93;1.70;;;25.10;54.60;;;;;;6167237;23;20404;-81
2022/09/17 11:32:31;;;;;;;5.50;2.53;;;23.20;56.80;;;;;;6160561;23;20434;-84
2022/09/17 11:35:02;;;;;;;5.67;3.10;;;22.10;59.00;;;;;;6161101;23;20471;-82
2022/09/17 11:37:35;;;;;;;5.77;3.90;;;23.00;58.90;;;;;;6162504;23;20387;-83
2022/09/17 11:40:13;;;;;;;13.63;10.10;;;23.50;57.40;;;;;;6160970;23;20388;-84
2022/09/17 11:42:46;;;;;;;4.20;1.93;;;23.40;57.50;;;;;;6158668;23;20434;-82
2022/09/17 11:45:18;;;;;;;2.57;1.50;;;22.60;58.00;;;;;;6158402;23;20486;-83
2022/09/17 11:47:50;;;;;;;8.00;3.77;;;22.70;58.80;;;;;;6159382;23;20419;-85
2022/09/17 11:50:21;;;;;;;8.70;4.53;;;23.40;58.00;;;;;;6160672;23;20426;-85
2022/09/17 11:53:00;;;;;;;4.63;2.50;;;22.70;58.50;;;;;;6161531;23;20726;-82
2022/09/17 11:55:33;;;;;;;3.87;1.80;;;22.60;58.80;;;;;;6158957;23;20530;-83
2022/09/17 11:58:07;;;;;;;6.93;2.50;;;23.80;57.40;;;;;;6158588;23;20949;-82
2022/09/17 12:00:40;;;;;;;6.70;2.60;;;24.00;55.60;;;;;;6163014;23;20395;-86
2022/09/17 12:03:17;;;;;;;3.40;1.80;;;23.40;56.00;;;;;;6158166;23;20435;-86
2022/09/17 12:05:50;;;;;;;5.20;1.90;;;22.10;57.30;;;;;;6169189;23;20458;-85
2022/09/17 12:08:21;;;;;;;3.93;1.10;;;21.30;60.50;;;;;;6170136;23;20394;-82
2022/09/17 12:10:57;;;;;;;4.10;2.20;;;20.60;62.90;;;;;;6170181;23;20399;-83
2022/09/17 12:13:33;;;;;;;2.63;1.30;;;20.00;65.60;;;;;;6171671;23;20855;-83
2022/09/17 12:16:10;;;;;;;3.43;1.77;;;19.70;65.60;;;;;;6164736;23;20423;-84
2022/09/17 12:18:59;;;;;;;4.30;1.90;;;19.40;65.60;;;;;;6167525;23;20414;-85
2022/09/17 12:21:30;;;;;;;5.03;2.93;;;18.90;67.80;;;;;;6163556;23;20384;-83
2022/09/17 12:24:03;;;;;;;5.23;1.70;;;18.30;77.00;;;;;;6158653;23;20482;-83
2022/09/17 12:27:09;;;;;;;6.10;2.00;;;17.50;82.20;;;;;;6158314;23;20822;-81
2022/09/17 12:29:56;;;;;;;5.20;2.53;;;17.00;89.20;;;;;;6158458;23;20407;-83
2022/09/17 12:32:49;;;;;;;7.40;2.40;;;16.80;92.10;;;;;;6157426;23;20478;-82
2022/09/17 12:35:28;;;;;;;2.60;1.90;;;16.30;96.30;;;;;;6140733;23;20443;-84
2022/09/17 12:38:08;;;;;;;5.53;2.00;;;15.50;99.90;;;;;;6156752;23;20407;-84
2022/09/17 12:40:41;;;;;;;6.03;2.40;;;15.30;99.90;;;;;;6156393;23;20392;-85
2022/09/17 12:43:35;;;;;;;4.10;3.00;;;15.90;99.90;;;;;;6157107;23;20439;-83
2022/09/17 12:46:26;;;;;;;4.30;2.43;;;17.00;99.90;;;;;;6156691;23;20941;-83
2022/09/17 12:49:14;;;;;;;5.90;2.40;;;17.00;99.90;;;;;;6159723;23;20408;-81
2022/09/17 12:51:56;;;;;;;4.83;2.33;;;16.70;99.90;;;;;;6154143;23;20415;-82
2022/09/17 12:55:03;;;;;;;3.27;1.87;;;16.30;99.90;;;;;;6157131;23;20391;-83
2022/09/17 12:57:41;;;;;;;2.33;1.50;;;16.10;99.90;;;;;;6140878;23;20423;-82
2022/09/17 13:00:13;;;;;;;5.63;1.77;;;17.10;99.90;;;;;;6158533;23;20390;-82
2022/09/17 13:02:45;;;;;;;2.00;1.40;;;17.50;99.90;;;;;;6160184;23;20471;-82
2022/09/17 13:05:41;;;;;;;3.20;1.90;;;17.40;99.70;;;;;;6157799;23;20451;-83
2022/09/17 13:08:33;;;;;;;2.10;1.50;;;16.90;98.80;;;;;;6132292;23;20976;-82
2022/09/17 13:11:27;;;;;;;2.00;1.37;;;16.50;99.00;;;;;;6162141;23;20459;-85
2022/09/17 13:14:01;;;;;;;3.13;1.43;;;16.20;98.80;;;;;;6122096;23;20406;-85